Time;durP1;ratioP1;P1;durP2;ratioP2;P2;SDS_P1;SDS_P2;PMS_P1;PMS_P2;Temp;Humidity;BMP_temperature;BMP_pressure;BME280_temperature;BME280_humidity;BME280_pressure;Samples;Min_cycle;Max_cycle;Signal;HPM_P1;HPM_P2
2021/05/10 00:00:16;;;;;;;19.77;9.47;;;;;;;9.18;49.78;101497.97;125096;1102;104184;-77
2021/05/10 00:03:06;;;;;;;19.70;9.30;;;;;;;9.15;49.62;101487.31;125195;1102;104422;-77
2021/05/10 00:05:35;;;;;;;21.27;8.97;;;;;;;9.13;49.90;101491.54;125183;1102;104156;-77
2021/05/10 00:08:06;;;;;;;18.17;8.20;;;;;;;9.11;49.53;101490.56;125157;1102;104217;-77
2021/05/10 00:10:37;;;;;;;18.53;7.97;;;;;;;9.09;49.70;101494.81;125172;1102;104152;-77
2021/05/10 00:13:07;;;;;;;18.90;8.73;;;;;;;9.09;50.19;101486.96;125169;1102;104201;-77
2021/05/10 00:15:37;;;;;;;20.47;8.30;;;;;;;9.08;49.95;101480.80;125134;1102;104147;-77
2021/05/10 00:18:07;;;;;;;18.77;9.03;;;;;;;9.08;50.10;101485.14;125189;1102;104158;-77
2021/05/10 00:20:38;;;;;;;17.87;8.53;;;;;;;9.08;50.03;101485.14;125117;1102;104277;-77
2021/05/10 00:23:08;;;;;;;16.07;8.50;;;;;;;9.07;49.88;101493.80;125130;1102;104576;-77
2021/05/10 00:25:37;;;;;;;16.70;8.50;;;;;;;9.04;50.00;101489.31;125155;1102;104290;-77
2021/05/10 00:28:08;;;;;;;16.87;8.83;;;;;;;8.99;50.54;101489.05;125174;1102;104261;-77
2021/05/10 00:30:38;;;;;;;17.47;8.47;;;;;;;8.95;50.31;101489.67;125095;1102;104258;-77
2021/05/10 00:33:08;;;;;;;21.57;9.13;;;;;;;8.92;50.37;101481.64;125183;1102;104822;-77
2021/05/10 00:35:37;;;;;;;21.33;9.30;;;;;;;8.88;50.31;101482.30;125136;1102;104288;-77
2021/05/10 00:38:06;;;;;;;21.13;9.80;;;;;;;8.86;50.20;101481.28;125165;1102;104162;-77
2021/05/10 00:40:36;;;;;;;19.93;9.17;;;;;;;8.85;50.51;101489.05;125134;1102;104235;-77
2021/05/10 00:43:05;;;;;;;19.10;8.50;;;;;;;8.83;50.88;101491.57;125137;1102;104146;-77
2021/05/10 00:45:35;;;;;;;17.40;8.23;;;;;;;8.86;51.07;101483.01;125181;1102;104185;-77
2021/05/10 00:48:05;;;;;;;18.03;8.10;;;;;;;8.88;50.90;101492.77;125158;1102;104173;-77
2021/05/10 00:50:35;;;;;;;21.73;9.00;;;;;;;8.91;51.07;101486.78;125163;1102;104367;-77
2021/05/10 00:53:04;;;;;;;20.13;8.33;;;;;;;8.91;51.45;101482.48;125112;1102;104229;-77
2021/05/10 00:55:35;;;;;;;20.85;8.85;;;;;;;8.90;51.23;101479.77;125215;1102;104188;-77
2021/05/10 00:58:06;;;;;;;18.53;9.17;;;;;;;8.89;51.13;101485.80;125114;1102;104229;-75
2021/05/10 01:00:38;;;;;;;20.20;9.10;;;;;;;8.83;51.28;101488.95;125094;1102;104219;-76
2021/05/10 01:03:09;;;;;;;18.20;8.53;;;;;;;8.78;51.56;101488.69;125104;1102;104372;-76
2021/05/10 01:05:39;;;;;;;22.33;8.80;;;;;;;8.72;51.28;101487.44;125149;1102;104155;-76
2021/05/10 01:08:08;;;;;;;21.63;9.30;;;;;;;8.69;51.50;101492.48;125086;1102;104175;-76
2021/05/10 01:10:37;;;;;;;20.60;9.15;;;;;;;8.68;51.89;101485.44;125076;1102;104143;-76
2021/05/10 01:13:07;;;;;;;22.77;9.57;;;;;;;8.66;51.95;101487.07;125132;1102;104238;-76
2021/05/10 01:15:37;;;;;;;17.63;8.53;;;;;;;8.63;51.90;101488.70;125131;1102;104278;-76
2021/05/10 01:18:07;;;;;;;21.87;9.33;;;;;;;8.58;52.11;101492.73;125051;1101;104291;-76
2021/05/10 01:20:36;;;;;;;17.63;9.13;;;;;;;8.52;51.98;101484.52;125183;1102;104153;-76
2021/05/10 01:23:06;;;;;;;18.73;9.47;;;;;;;8.49;52.21;101486.95;125119;1102;104255;-76
2021/05/10 01:25:35;;;;;;;21.50;9.23;;;;;;;8.44;52.27;101491.02;125246;1102;104155;-78
2021/05/10 01:28:04;;;;;;;19.57;8.80;;;;;;;8.45;52.26;101491.11;125131;1102;104136;-77
2021/05/10 01:30:36;;;;;;;21.57;8.60;;;;;;;8.47;52.41;101488.59;125170;1102;104319;-78
2021/05/10 01:33:08;;;;;;;19.20;7.73;;;;;;;8.47;52.23;101492.92;125176;1102;104162;-77
2021/05/10 01:35:41;;;;;;;19.43;7.83;;;;;;;8.48;52.49;101486.86;125224;1102;104248;-77
2021/05/10 01:38:10;;;;;;;21.03;8.30;;;;;;;8.45;52.50;101491.11;125160;1102;104216;-77
2021/05/10 01:40:41;;;;;;;19.63;8.87;;;;;;;8.45;52.56;101488.49;125119;1102;104142;-77
2021/05/10 01:43:11;;;;;;;19.97;9.70;;;;;;;8.44;52.38;101491.02;125126;1102;104146;-77
2021/05/10 01:45:41;;;;;;;23.30;9.47;;;;;;;8.42;53.14;101487.38;125103;1102;104184;-77
2021/05/10 01:48:13;;;;;;;21.15;9.65;;;;;;;8.38;52.66;101490.61;125211;1102;104144;-76
2021/05/10 01:50:45;;;;;;;17.03;9.17;;;;;;;8.33;52.66;101487.72;125237;1102;104229;-77
2021/05/10 01:53:15;;;;;;;18.20;9.23;;;;;;;8.32;53.20;101485.01;125250;1102;104336;-77
2021/05/10 01:55:44;;;;;;;20.97;9.60;;;;;;;8.30;53.33;101490.14;125172;1103;104291;-77
2021/05/10 01:58:13;;;;;;;19.10;8.90;;;;;;;8.24;52.96;101492.39;125184;1102;104627;-77
2021/05/10 02:00:45;;;;;;;20.00;9.00;;;;;;;8.18;53.32;101495.55;125114;1102;104178;-77
2021/05/10 02:03:15;;;;;;;23.53;9.40;;;;;;;8.12;53.68;101489.95;125144;1102;104235;-77
2021/05/10 02:05:48;;;;;;;18.63;9.30;;;;;;;8.09;53.62;101497.59;125191;1102;104278;-76
2021/05/10 02:08:19;;;;;;;22.75;9.55;;;;;;;8.04;53.87;101502.55;125141;1102;104153;-77
2021/05/10 02:10:50;;;;;;;19.67;9.30;;;;;;;8.01;53.89;101514.50;125197;1102;104255;-78
2021/05/10 02:13:21;;;;;;;24.00;9.73;;;;;;;8.00;53.66;101510.98;125116;1102;104155;-78
2021/05/10 02:15:52;;;;;;;18.85;8.90;;;;;;;8.03;53.42;101497.22;125119;1102;104669;-76
2021/05/10 02:18:24;;;;;;;21.30;9.50;;;;;;;8.06;54.04;101506.14;125188;1102;104140;-77
2021/05/10 02:20:54;;;;;;;19.73;8.63;;;;;;;8.08;53.83;101490.55;125130;1102;104265;-77
2021/05/10 02:23:25;;;;;;;19.73;8.90;;;;;;;8.12;53.63;101495.17;125192;1102;104184;-78
2021/05/10 02:25:56;;;;;;;21.53;9.30;;;;;;;8.15;54.10;101494.44;125189;1102;104261;-77
2021/05/10 02:28:28;;;;;;;17.60;8.60;;;;;;;8.13;53.84;101491.73;125185;1102;104256;-77
2021/05/10 02:30:59;;;;;;;22.57;9.97;;;;;;;8.14;54.34;101490.04;125223;1102;104363;-77
2021/05/10 02:33:32;;;;;;;18.67;8.70;;;;;;;8.15;54.28;101486.59;125056;1102;104258;-78
2021/05/10 02:36:02;;;;;;;20.93;8.90;;;;;;;8.15;54.28;101494.44;125198;1102;104149;-76
2021/05/10 02:38:31;;;;;;;19.27;8.50;;;;;;;8.11;54.05;101495.97;125183;1102;104267;-77
2021/05/10 02:41:00;;;;;;;20.17;8.53;;;;;;;8.07;53.93;101486.12;125248;1102;104174;-78
2021/05/10 02:43:32;;;;;;;20.50;8.83;;;;;;;8.06;53.90;101505.25;125105;1102;104153;-78
2021/05/10 02:46:02;;;;;;;17.97;8.43;;;;;;;8.06;54.09;101500.91;125185;1102;104283;-78
2021/05/10 02:48:31;;;;;;;20.40;9.17;;;;;;;8.00;54.32;101497.92;125175;1102;104156;-77
2021/05/10 02:51:00;;;;;;;17.73;8.70;;;;;;;7.97;54.49;101500.34;125233;1102;104733;-77
2021/05/10 02:53:29;;;;;;;21.87;8.97;;;;;;;7.95;54.56;101507.20;125146;1102;104291;-78
2021/05/10 02:55:58;;;;;;;18.30;9.00;;;;;;;7.95;54.62;101506.27;125225;1102;104155;-77
2021/05/10 02:58:28;;;;;;;16.97;8.57;;;;;;;7.94;54.38;101510.61;125093;1102;104155;-78
2021/05/10 03:00:57;;;;;;;22.20;9.70;;;;;;;7.95;54.21;101508.88;125208;1102;104325;-77
2021/05/10 03:03:26;;;;;;;17.90;7.93;;;;;;;7.99;54.63;101516.13;125234;1102;104201;-78
2021/05/10 03:05:55;;;;;;;17.10;7.97;;;;;;;8.02;54.65;101518.92;125197;1102;106905;-77
2021/05/10 03:08:25;;;;;;;16.83;8.13;;;;;;;8.02;54.65;101513.70;125194;1102;104306;-77
2021/05/10 03:10:54;;;;;;;20.53;8.30;;;;;;;8.01;54.40;101522.34;125161;1102;104137;-77
2021/05/10 03:13:24;;;;;;;17.03;7.83;;;;;;;8.05;54.59;101521.73;125091;1102;104395;-77
2021/05/10 03:15:53;;;;;;;18.03;8.30;;;;;;;8.12;55.08;101531.77;125110;1102;104332;-78
2021/05/10 03:18:22;;;;;;;21.60;8.63;;;;;;;8.15;54.69;101529.35;125171;1102;104273;-78
2021/05/10 03:20:52;;;;;;;19.57;8.50;;;;;;;8.18;54.98;101531.23;125191;1102;104284;-77
2021/05/10 03:23:22;;;;;;;18.10;7.90;;;;;;;8.20;54.65;101535.76;125116;1102;104181;-77
2021/05/10 03:25:51;;;;;;;17.17;8.10;;;;;;;8.21;54.83;101540.19;125147;1102;104162;-78
2021/05/10 03:28:30;;;;;;;19.67;8.17;;;;;;;8.21;55.14;101532.34;125148;1102;104150;-78
2021/05/10 03:30:59;;;;;;;16.87;7.80;;;;;;;8.24;54.95;101535.15;125190;1102;104258;-76
2021/05/10 03:33:28;;;;;;;20.07;8.37;;;;;;;8.28;55.19;101544.97;125140;1102;104226;-76
2021/05/10 03:35:58;;;;;;;17.07;8.20;;;;;;;8.35;55.16;101535.81;125106;1102;104214;-76
2021/05/10 03:38:27;;;;;;;17.67;8.10;;;;;;;8.44;55.35;101540.71;125148;1102;104579;-76
2021/05/10 03:40:57;;;;;;;19.13;8.67;;;;;;;8.51;55.04;101542.91;125155;1102;104182;-76
2021/05/10 03:43:26;;;;;;;24.87;9.30;;;;;;;8.60;55.59;101545.16;125178;1102;104160;-76
2021/05/10 03:45:55;;;;;;;20.07;8.33;;;;;;;8.71;55.44;101543.19;125176;1102;104232;-76
2021/05/10 03:48:25;;;;;;;22.60;7.50;;;;;;;8.82;54.93;101547.37;125154;1102;104937;-76
2021/05/10 03:50:54;;;;;;;25.03;8.30;;;;;;;8.92;55.64;101541.84;125208;1102;104150;-77
2021/05/10 03:53:24;;;;;;;18.70;7.63;;;;;;;9.02;55.05;101543.28;125085;1102;104156;-77
2021/05/10 03:55:53;;;;;;;19.00;8.10;;;;;;;9.13;55.72;101551.77;125022;1102;104290;-77
2021/05/10 03:58:23;;;;;;;21.47;8.37;;;;;;;9.22;55.55;101552.30;125155;1101;104149;-77
2021/05/10 04:00:52;;;;;;;17.07;8.63;;;;;;;9.29;55.64;101546.61;125096;1102;104713;-77
2021/05/10 04:03:28;;;;;;;14.97;6.73;;;;;;;9.35;55.46;101541.73;125167;1102;104156;-77
2021/05/10 04:08:53;;;;;;;16.40;7.23;;;;;;;9.51;54.91;101545.22;125164;1102;104149;-77
2021/05/10 04:13:33;;;;;;;11.47;6.13;;;;;;;9.57;55.00;101542.95;125144;1102;104265;-77
2021/05/10 04:14:15;;;;;;;14.93;6.60;;;;;;;9.63;54.81;101545.92;125098;1102;104280;-77
2021/05/10 04:16:44;;;;;;;16.30;6.43;;;;;;;9.71;54.56;101556.84;125028;1102;104198;-76
2021/05/10 04:19:13;;;;;;;13.67;6.40;;;;;;;9.78;55.04;101544.96;125175;1102;104149;-76
2021/05/10 04:21:44;;;;;;;16.93;6.80;;;;;;;9.84;54.53;101542.69;125219;1102;104240;-76
2021/05/10 04:24:13;;;;;;;13.20;6.35;;;;;;;9.92;54.46;101550.97;125106;1102;104252;-76
2021/05/10 04:26:43;;;;;;;13.90;6.73;;;;;;;9.98;54.56;101544.33;125060;1102;104172;-76
2021/05/10 04:29:12;;;;;;;15.37;6.00;;;;;;;10.06;54.42;101548.27;125127;1102;104194;-76
2021/05/10 04:31:42;;;;;;;12.67;6.60;;;;;;;10.14;54.75;101542.55;124860;1102;104785;-76
2021/05/10 04:34:12;;;;;;;15.00;6.57;;;;;;;10.21;54.42;101550.83;124913;1102;104341;-77
2021/05/10 04:36:41;;;;;;;14.93;7.30;;;;;;;10.29;54.31;101545.11;124895;1103;104386;-77
2021/05/10 04:39:11;;;;;;;16.33;7.30;;;;;;;10.36;54.41;101548.18;124919;1105;104284;-77
2021/05/10 04:41:40;;;;;;;17.17;7.63;;;;;;;10.43;54.42;101544.15;124852;1103;104339;-76
2021/05/10 04:44:09;;;;;;;14.87;7.83;;;;;;;10.50;54.51;101541.04;124992;1104;104383;-77
2021/05/10 04:46:38;;;;;;;16.27;7.27;;;;;;;10.58;54.35;101536.16;124938;1103;104306;-78
2021/05/10 04:49:07;;;;;;;15.80;7.60;;;;;;;10.65;54.43;101530.42;124976;1102;104195;-78
2021/05/10 04:51:37;;;;;;;19.57;7.57;;;;;;;10.71;54.15;101537.72;124912;1102;104293;-77
2021/05/10 04:54:07;;;;;;;15.87;7.60;;;;;;;10.76;54.25;101544.10;124951;1105;104318;-78
2021/05/10 04:56:36;;;;;;;15.77;7.10;;;;;;;10.82;54.32;101536.54;124894;1102;104264;-77
2021/05/10 04:59:05;;;;;;;15.00;7.27;;;;;;;10.88;54.45;101533.34;124951;1105;104488;-77
2021/05/10 05:01:34;;;;;;;15.90;6.97;;;;;;;10.95;54.01;101546.86;124928;1105;104214;-77
2021/05/10 05:04:04;;;;;;;13.20;6.57;;;;;;;11.04;54.26;101543.78;125106;1102;104335;-77
2021/05/10 05:06:34;;;;;;;14.93;6.63;;;;;;;11.11;54.18;101547.60;125103;1102;105537;-77
2021/05/10 05:09:03;;;;;;;15.60;6.40;;;;;;;11.18;54.33;101546.20;125142;1102;104150;-77
2021/05/10 05:11:33;;;;;;;19.23;7.00;;;;;;;11.27;54.42;101552.81;125135;1102;104297;-77
2021/05/10 05:14:02;;;;;;;14.50;6.20;;;;;;;11.39;54.45;101544.65;124999;1102;104252;-78
2021/05/10 05:16:31;;;;;;;18.33;6.27;;;;;;;11.52;54.40;101546.14;124817;1102;104361;-78
2021/05/10 05:19:01;;;;;;;15.30;6.57;;;;;;;11.61;54.27;101548.29;124952;1102;104204;-77
2021/05/10 05:21:30;;;;;;;16.03;6.30;;;;;;;11.73;54.20;101535.73;125008;1102;104194;-77
2021/05/10 05:23:59;;;;;;;16.77;6.43;;;;;;;11.85;54.28;101536.31;124939;1102;104634;-77
2021/05/10 05:26:29;;;;;;;15.53;6.40;;;;;;;11.97;54.34;101543.03;124932;1102;104282;-77
2021/05/10 05:28:58;;;;;;;12.73;5.97;;;;;;;12.08;53.97;101547.06;124954;1102;108153;-77
2021/05/10 05:31:29;;;;;;;9.97;4.90;;;;;;;12.19;54.20;101552.81;124989;1102;104364;-76
2021/05/10 05:33:58;;;;;;;9.03;4.53;;;;;;;12.31;53.94;101545.48;125010;1102;104294;-77
2021/05/10 05:36:27;;;;;;;8.03;3.77;;;;;;;12.43;53.96;101547.75;124911;1101;104181;-77
2021/05/10 05:38:57;;;;;;;8.57;3.70;;;;;;;12.55;53.77;101545.66;125121;1102;104234;-76
2021/05/10 05:41:26;;;;;;;5.67;3.40;;;;;;;12.67;53.73;101555.84;125045;1102;104325;-77
2021/05/10 05:43:55;;;;;;;6.60;3.33;;;;;;;12.82;53.79;101558.23;125093;1102;104140;-77
2021/05/10 05:46:27;;;;;;;6.10;3.07;;;;;;;12.93;53.71;101545.53;125180;1102;104195;-77
2021/05/10 05:48:57;;;;;;;7.27;3.30;;;;;;;13.07;53.11;101549.67;125058;1102;104152;-77
2021/05/10 05:51:26;;;;;;;7.80;3.05;;;;;;;13.17;53.51;101548.31;125240;1102;104210;-77
2021/05/10 05:53:56;;;;;;;8.23;2.87;;;;;;;13.27;53.45;101545.20;125131;1102;104345;-77
2021/05/10 05:56:27;;;;;;;5.63;3.00;;;;;;;13.37;53.40;101548.25;125162;1102;104216;-77
2021/05/10 05:58:56;;;;;;;5.43;2.90;;;;;;;13.45;53.28;101546.85;125109;1102;104149;-77
2021/05/10 06:01:26;;;;;;;4.07;2.97;;;;;;;13.54;52.79;101547.23;125141;1102;104177;-77
2021/05/10 06:03:56;;;;;;;2.73;2.43;;;;;;;13.63;53.20;101542.33;125154;1102;104618;-78
2021/05/10 06:06:25;;;;;;;3.83;2.67;;;;;;;13.71;52.59;101545.23;125071;1102;104191;-77
2021/05/10 06:08:55;;;;;;;6.13;2.73;;;;;;;13.80;52.64;101549.98;125097;1102;104245;-77
2021/05/10 06:11:25;;;;;;;7.37;2.90;;;;;;;13.92;52.40;101545.19;125161;1102;104208;-76
2021/05/10 06:13:54;;;;;;;7.03;2.70;;;;;;;14.02;52.81;101546.44;125085;1102;104150;-76
2021/05/10 06:16:27;;;;;;;3.93;2.67;;;;;;;14.08;51.98;101545.78;125169;1102;104245;-76
2021/05/10 06:18:57;;;;;;;6.00;2.70;;;;;;;14.16;52.77;101545.24;125069;1102;102204;-76
2021/05/10 06:21:27;;;;;;;7.00;3.07;;;;;;;14.25;52.22;101543.78;125160;1102;104172;-76
2021/05/10 06:23:56;;;;;;;5.17;2.80;;;;;;;14.29;51.92;101540.39;125101;1102;104232;-76
2021/05/10 06:26:25;;;;;;;4.60;2.60;;;;;;;14.40;52.13;101541.70;125218;1102;104637;-78
2021/05/10 06:28:54;;;;;;;5.20;2.60;;;;;;;14.48;52.08;101541.98;125098;1102;104153;-76
2021/05/10 06:31:24;;;;;;;5.67;3.17;;;;;;;14.58;51.33;101536.17;125150;1102;104313;-78
2021/05/10 06:33:53;;;;;;;7.97;2.70;;;;;;;14.67;51.75;101531.25;125191;1102;104165;-77
2021/05/10 06:36:23;;;;;;;4.13;2.70;;;;;;;14.80;50.59;101531.69;125129;1102;104217;-77
2021/05/10 06:38:52;;;;;;;5.60;3.20;;;;;;;14.89;50.54;101524.97;125183;1102;104153;-77
2021/05/10 06:41:21;;;;;;;6.20;2.80;;;;;;;14.99;50.65;101536.78;125184;1102;104178;-77
2021/05/10 06:43:50;;;;;;;4.70;2.53;;;;;;;15.08;50.48;101539.73;125111;1102;104312;-77
2021/05/10 06:46:23;;;;;;;9.25;2.90;;;;;;;15.21;50.98;101532.22;125194;1102;104168;-77
2021/05/10 06:48:52;;;;;;;6.40;2.60;;;;;;;15.33;50.66;101537.88;125108;1102;104182;-77
2021/05/10 06:51:21;;;;;;;3.10;2.50;;;;;;;15.49;51.18;101534.02;125107;1102;104656;-76
2021/05/10 06:53:51;;;;;;;3.50;2.50;;;;;;;15.67;50.78;101528.38;125109;1102;104204;-77
2021/05/10 06:56:20;;;;;;;8.20;3.90;;;;;;;15.80;49.50;101525.31;125132;1102;104412;-75
2021/05/10 06:58:49;;;;;;;3.57;2.10;;;;;;;15.92;49.73;101530.06;125080;1102;104143;-76
2021/05/10 07:01:19;;;;;;;4.87;2.80;;;;;;;16.04;49.53;101534.84;125076;1102;104271;-75
2021/05/10 07:03:48;;;;;;;4.13;2.60;;;;;;;16.17;49.47;101529.07;125139;1102;104301;-76
2021/05/10 07:06:17;;;;;;;4.33;2.70;;;;;;;16.37;50.14;101531.38;125163;1102;104227;-76
2021/05/10 07:08:47;;;;;;;4.40;2.57;;;;;;;16.54;49.75;101531.84;125080;1102;104140;-76
2021/05/10 07:11:16;;;;;;;4.00;2.13;;;;;;;16.74;49.63;101529.75;125199;1102;104146;-76
2021/05/10 07:13:45;;;;;;;4.23;2.30;;;;;;;16.91;48.82;101524.92;125149;1102;104245;-76
2021/05/10 07:16:14;;;;;;;3.27;2.10;;;;;;;17.10;48.88;101525.41;125115;1102;104149;-76
2021/05/10 07:18:44;;;;;;;3.40;2.17;;;;;;;17.28;47.66;101519.64;125112;1102;104136;-76
2021/05/10 07:21:13;;;;;;;4.10;2.10;;;;;;;17.45;48.28;101526.23;125020;1102;107037;-77
2021/05/10 07:23:42;;;;;;;4.67;2.27;;;;;;;17.70;48.36;101524.16;125141;1101;104268;-76
2021/05/10 07:26:11;;;;;;;3.67;1.93;;;;;;;17.83;47.75;101520.05;125111;1102;104143;-76
2021/05/10 07:28:41;;;;;;;7.07;2.43;;;;;;;17.98;47.72;101514.19;125140;1102;104206;-77
2021/05/10 07:31:11;;;;;;;3.83;2.20;;;;;;;18.07;47.31;101515.27;125096;1102;104149;-76
2021/05/10 07:33:40;;;;;;;2.50;2.30;;;;;;;18.23;47.18;101520.91;125143;1102;104335;-76
2021/05/10 07:36:10;;;;;;;5.93;2.30;;;;;;;18.33;47.08;101515.81;125210;1103;104159;-77
2021/05/10 07:38:40;;;;;;;6.80;2.63;;;;;;;18.44;46.72;101516.03;125106;1101;104274;-77
2021/05/10 07:41:09;;;;;;;2.83;2.10;;;;;;;18.61;46.55;101512.81;125056;1102;104207;-77
2021/05/10 07:43:38;;;;;;;5.70;2.20;;;;;;;18.71;46.41;101514.75;125143;1102;104246;-76
2021/05/10 07:46:08;;;;;;;2.73;2.10;;;;;;;18.90;46.31;101521.36;125109;1102;104329;-77
2021/05/10 07:48:37;;;;;;;2.77;1.93;;;;;;;19.06;46.02;101522.52;125261;1102;104229;-76
2021/05/10 07:51:07;;;;;;;4.63;1.90;;;;;;;19.21;45.21;101519.19;125069;1102;104153;-76
2021/05/10 07:53:36;;;;;;;4.07;2.20;;;;;;;19.35;45.05;101523.00;125158;1102;104211;-76
2021/05/10 07:56:05;;;;;;;4.17;2.40;;;;;;;19.44;44.60;101516.02;125096;1102;104185;-77
2021/05/10 07:58:36;;;;;;;6.07;2.03;;;;;;;19.46;44.60;101515.18;125123;1100;104282;-76
2021/05/10 08:01:06;;;;;;;3.43;2.20;;;;;;;19.63;42.90;101512.74;125217;1102;104261;-76
2021/05/10 08:03:36;;;;;;;2.93;2.37;;;;;;;19.74;43.84;101510.23;125068;1102;104184;-76
2021/05/10 08:06:06;;;;;;;3.13;2.40;;;;;;;19.80;44.06;101510.36;125103;1102;104175;-75
2021/05/10 08:08:36;;;;;;;2.90;1.97;;;;;;;19.81;42.23;101509.49;125096;1102;104219;-75
2021/05/10 08:11:06;;;;;;;2.80;2.10;;;;;;;19.86;43.01;101506.89;124984;1102;104182;-75
2021/05/10 08:13:35;;;;;;;3.30;2.03;;;;;;;20.01;43.09;101504.44;125219;1102;104216;-75
2021/05/10 08:16:05;;;;;;;4.13;2.30;;;;;;;20.14;42.96;101502.81;125101;1102;104223;-76
2021/05/10 08:18:41;;;;;;;4.20;2.47;;;;;;;20.19;41.27;101503.75;125195;1102;104149;-76
2021/05/10 08:21:10;;;;;;;2.83;2.23;;;;;;;20.34;41.45;101504.83;125213;1101;104152;-76
2021/05/10 08:23:39;;;;;;;3.23;2.30;;;;;;;20.40;41.25;101504.90;125123;1102;104614;-75
2021/05/10 08:26:09;;;;;;;4.53;2.60;;;;;;;20.43;41.08;101503.16;125179;1102;104137;-75
2021/05/10 08:28:38;;;;;;;4.50;2.37;;;;;;;20.47;41.35;101501.41;125151;1102;104139;-75
2021/05/10 08:31:07;;;;;;;6.60;2.53;;;;;;;20.44;40.84;101507.62;125180;1102;104181;-75
2021/05/10 08:33:36;;;;;;;5.93;2.30;;;;;;;20.48;40.46;101493.42;125280;1102;104217;-75
2021/05/10 08:36:06;;;;;;;6.33;2.23;;;;;;;20.59;40.73;101497.98;125169;1102;104296;-75
2021/05/10 08:38:35;;;;;;;6.23;2.20;;;;;;;20.63;40.34;101494.45;125250;1102;104256;-75
2021/05/10 08:41:05;;;;;;;4.87;2.40;;;;;;;20.62;40.70;101488.23;125010;1102;104230;-75
2021/05/10 08:43:34;;;;;;;5.13;2.40;;;;;;;20.56;40.46;101489.95;125188;1102;104252;-75
2021/05/10 08:46:06;;;;;;;3.80;2.00;;;;;;;20.58;40.73;101485.52;125119;1101;104249;-75
2021/05/10 08:48:35;;;;;;;3.43;2.23;;;;;;;20.72;40.10;101478.58;125154;1102;104332;-75
2021/05/10 08:51:05;;;;;;;2.67;2.10;;;;;;;20.78;38.53;101483.97;125117;1102;104248;-75
2021/05/10 08:53:37;;;;;;;3.70;2.20;;;;;;;20.74;38.75;101476.84;125215;1102;104220;-77
2021/05/10 08:56:09;;;;;;;3.67;1.90;;;;;;;20.76;39.18;101483.07;125153;1102;104214;-76
2021/05/10 08:58:40;;;;;;;2.33;2.03;;;;;;;20.89;38.42;101480.52;125093;1102;104246;-76
2021/05/10 09:01:11;;;;;;;3.97;2.40;;;;;;;20.88;38.47;101479.64;125096;1102;104379;-75
2021/05/10 09:03:44;;;;;;;3.80;2.10;;;;;;;20.86;38.33;101470.70;125200;1102;104242;-75
2021/05/10 09:06:18;;;;;;;3.70;2.02;;;;;;;20.90;37.84;101471.64;125161;1102;104201;-75
2021/05/10 09:08:47;;;;;;;;;;;;;;;20.95;36.67;101461.89;125160;1102;104143;-75
2021/05/10 09:11:18;;;;;;;2.10;1.90;;;;;;;20.98;37.94;101456.59;125124;1102;105325;-76
2021/05/10 09:13:54;;;;;;;4.33;2.13;;;;;;;21.07;37.61;101448.66;125020;1102;104322;-76
2021/05/10 09:16:24;;;;;;;5.83;2.70;;;;;;;21.14;37.96;101450.47;125226;1102;104146;-75
2021/05/10 09:18:55;;;;;;;3.37;2.23;;;;;;;21.21;38.04;101447.84;125183;1101;104248;-75
2021/05/10 09:21:27;;;;;;;2.90;1.80;;;;;;;21.28;36.65;101439.88;125060;1102;104246;-77
2021/05/10 09:23:58;;;;;;;3.63;2.17;;;;;;;21.36;36.52;101443.52;125091;1102;104258;-75
2021/05/10 09:26:33;;;;;;;3.33;2.13;;;;;;;21.49;36.94;101440.95;125055;1102;104325;-76
2021/05/10 09:29:07;;;;;;;2.90;2.20;;;;;;;21.50;36.47;101438.30;125171;1102;104213;-75
2021/05/10 09:31:48;;;;;;;3.70;2.37;;;;;;;21.45;35.78;101431.98;125037;1102;104189;-75
2021/05/10 09:34:19;;;;;;;5.03;2.20;;;;;;;21.40;36.92;101424.85;125089;1102;104155;-75
2021/05/10 09:36:49;;;;;;;3.50;2.10;;;;;;;21.35;35.27;101439.05;125171;1102;104185;-75
2021/05/10 09:39:33;;;;;;;4.07;2.33;;;;;;;21.31;36.13;101418.55;125086;1102;104226;-75
2021/05/10 09:42:06;;;;;;;4.07;2.30;;;;;;;21.30;35.54;101439.89;125063;1102;104319;-75
2021/05/10 09:44:41;;;;;;;2.20;2.00;;;;;;;21.30;35.53;101424.80;125166;1102;104163;-76
2021/05/10 09:47:11;;;;;;;2.80;2.30;;;;;;;21.19;35.56;101416.72;125172;1102;104257;-75
2021/05/10 09:49:45;;;;;;;5.40;2.27;;;;;;;21.22;35.77;101405.14;125058;1102;104226;-75
2021/05/10 09:52:21;;;;;;;3.10;2.03;;;;;;;21.20;35.80;101409.59;125089;1102;104251;-75
2021/05/10 09:55:01;;;;;;;4.13;2.23;;;;;;;21.16;34.26;101405.11;125110;1102;104595;-75
2021/05/10 09:57:31;;;;;;;3.70;2.10;;;;;;;21.03;34.89;101403.26;125120;1102;104146;-75
2021/05/10 10:00:14;;;;;;;4.67;2.30;;;;;;;20.95;34.60;101397.87;125124;1102;104207;-75
2021/05/10 10:02:44;;;;;;;2.22;1.90;;;;;;;21.04;34.01;101405.94;125052;1102;104172;-76
2021/05/10 10:05:13;;;;;;;2.57;2.20;;;;;;;21.15;34.11;101403.34;125138;1102;104142;-75
2021/05/10 10:07:43;;;;;;;3.47;2.30;;;;;;;21.22;34.24;101401.59;125108;1102;104309;-76
2021/05/10 10:10:13;;;;;;;2.97;2.23;;;;;;;21.27;33.87;101407.84;125112;1102;104254;-75
2021/05/10 10:12:43;;;;;;;2.70;2.10;;;;;;;21.29;33.20;101395.42;125144;1102;104143;-75
2021/05/10 10:15:14;;;;;;;3.83;2.10;;;;;;;21.29;33.70;101398.09;125221;1102;104181;-75
2021/05/10 10:17:46;;;;;;;5.83;2.20;;;;;;;21.30;33.06;101398.10;125148;1102;104152;-75
2021/05/10 10:20:17;;;;;;;4.37;2.37;;;;;;;21.28;33.63;101397.18;125137;1102;104205;-75
2021/05/10 10:22:47;;;;;;;5.13;2.90;;;;;;;21.19;32.57;101397.13;124923;1105;103131;-76
2021/05/10 10:25:16;;;;;;;4.10;2.50;;;;;;;21.12;32.66;101385.52;124968;1105;104706;-76
2021/05/10 10:27:46;;;;;;;6.33;2.80;;;;;;;21.08;32.86;101386.37;124973;1103;104693;-76
2021/05/10 10:30:17;;;;;;;4.23;2.60;;;;;;;21.08;33.38;101381.04;124941;1105;104150;-76
2021/05/10 10:32:48;;;;;;;4.47;2.50;;;;;;;21.09;33.02;101379.28;124901;1102;104168;-75
2021/05/10 10:35:20;;;;;;;6.93;2.37;;;;;;;21.10;33.07;101381.97;124930;1103;104647;-76
2021/05/10 10:37:52;;;;;;;7.47;3.00;;;;;;;21.11;32.89;101382.84;124991;1106;104153;-75
2021/05/10 10:40:22;;;;;;;2.53;2.27;;;;;;;21.15;32.86;101373.98;124964;1106;104146;-75
2021/05/10 10:42:51;;;;;;;5.10;2.00;;;;;;;21.15;33.18;101369.53;124876;1102;104342;-76
2021/05/10 10:45:25;;;;;;;2.67;2.10;;;;;;;21.12;32.71;101361.51;124948;1105;104153;-75
2021/05/10 10:47:57;;;;;;;3.83;2.10;;;;;;;21.10;33.22;101365.04;124966;1104;104332;-75
2021/05/10 10:50:29;;;;;;;3.63;2.40;;;;;;;21.11;32.66;101359.72;124939;1105;104608;-75
2021/05/10 10:53:00;;;;;;;4.53;2.10;;;;;;;21.11;32.41;101354.38;124949;1105;104177;-76
2021/05/10 10:55:33;;;;;;;3.77;2.37;;;;;;;21.12;32.63;101350.84;124891;1102;107043;-75
2021/05/10 10:58:21;;;;;;;4.40;2.40;;;;;;;21.16;32.96;101349.06;124945;1102;104348;-76
2021/05/10 11:01:03;;;;;;;3.50;2.30;;;;;;;21.19;31.99;101352.67;124960;1103;104433;-75
2021/05/10 11:03:33;;;;;;;2.57;2.10;;;;;;;21.28;32.95;101349.13;124945;1102;104245;-76
2021/05/10 11:06:04;;;;;;;3.47;2.23;;;;;;;21.30;31.79;101341.13;124957;1102;104798;-76
2021/05/10 11:08:50;;;;;;;2.43;1.90;;;;;;;21.28;31.83;101335.78;125103;1102;104156;-76
2021/05/10 11:11:41;;;;;;;4.00;2.50;;;;;;;21.29;32.27;101329.58;125134;1102;104315;-75
2021/05/10 11:14:15;;;;;;;4.17;2.17;;;;;;;21.30;31.54;101327.78;124980;1102;105591;-76
2021/05/10 11:16:47;;;;;;;4.77;1.93;;;;;;;21.33;31.04;101327.80;124967;1102;104261;-76
2021/05/10 11:19:32;;;;;;;2.97;2.20;;;;;;;21.37;31.86;101330.49;125170;1102;104245;-75
2021/05/10 11:22:03;;;;;;;5.40;2.30;;;;;;;21.45;31.45;101330.53;125148;1102;104149;-75
2021/05/10 11:24:37;;;;;;;4.67;2.40;;;;;;;21.48;31.75;101322.53;125220;1102;104197;-76
2021/05/10 11:27:25;;;;;;;2.40;2.20;;;;;;;21.49;32.10;101316.34;125206;1102;104281;-76